sensor_id;sensor_type;location;lat;lon;timestamp;temperature;humidity
11569;DHT22;5840;46.894;15.542;2023-04-21T00:00:05;8.60;99.90
11569;DHT22;5840;46.894;15.542;2023-04-21T00:02:34;8.60;99.90
11569;DHT22;5840;46.894;15.542;2023-04-21T00:05:05;8.60;99.90
11569;DHT22;5840;46.894;15.542;2023-04-21T00:07:34;8.60;99.90
11569;DHT22;5840;46.894;15.542;2023-04-21T00:10:02;8.60;99.90
11569;DHT22;5840;46.894;15.542;2023-04-21T00:12:29;8.60;99.90
11569;DHT22;5840;46.894;15.542;2023-04-21T00:14:58;8.60;99.90
11569;DHT22;5840;46.894;15.542;2023-04-21T00:17:25;8.50;99.90
11569;DHT22;5840;46.894;15.542;2023-04-21T00:19:52;8.40;99.90
11569;DHT22;5840;46.894;15.542;2023-04-21T00:22:19;8.40;99.90
11569;DHT22;5840;46.894;15.542;2023-04-21T00:24:46;8.40;99.90
11569;DHT22;5840;46.894;15.542;2023-04-21T00:27:13;8.40;99.90
11569;DHT22;5840;46.894;15.542;2023-04-21T00:29:41;8.30;99.90
11569;DHT22;5840;46.894;15.542;2023-04-21T00:32:09;8.30;99.90
11569;DHT22;5840;46.894;15.542;2023-04-21T00:34:36;8.30;99.90
11569;DHT22;5840;46.894;15.542;2023-04-21T00:37:03;8.30;99.90
11569;DHT22;5840;46.894;15.542;2023-04-21T00:39:30;8.30;99.90
11569;DHT22;5840;46.894;15.542;2023-04-21T00:41:57;8.30;99.90
11569;DHT22;5840;46.894;15.542;2023-04-21T00:44:24;8.30;99.90
11569;DHT22;5840;46.894;15.542;2023-04-21T00:46:51;8.30;99.90
11569;DHT22;5840;46.894;15.542;2023-04-21T00:49:19;8.20;99.90
11569;DHT22;5840;46.894;15.542;2023-04-21T00:51:46;8.20;99.90
11569;DHT22;5840;46.894;15.542;2023-04-21T00:54:13;8.20;99.90
11569;DHT22;5840;46.894;15.542;2023-04-21T00:56:40;8.20;99.90
11569;DHT22;5840;46.894;15.542;2023-04-21T00:59:07;8.20;99.90
11569;DHT22;5840;46.894;15.542;2023-04-21T01:01:34;8.20;99.90
11569;DHT22;5840;46.894;15.542;2023-04-21T01:04:03;8.20;99.90
11569;DHT22;5840;46.894;15.542;2023-04-21T01:06:32;8.20;99.90
11569;DHT22;5840;46.894;15.542;2023-04-21T01:08:59;8.20;99.90
11569;DHT22;5840;46.894;15.542;2023-04-21T01:11:26;8.30;99.90
11569;DHT22;5840;46.894;15.542;2023-04-21T01:13:54;8.30;99.90
11569;DHT22;5840;46.894;15.542;2023-04-21T01:16:21;8.30;99.90
11569;DHT22;5840;46.894;15.542;2023-04-21T01:18:49;8.30;99.90
11569;DHT22;5840;46.894;15.542;2023-04-21T01:21:16;8.30;99.90
11569;DHT22;5840;46.894;15.542;2023-04-21T01:23:46;8.30;99.90
11569;DHT22;5840;46.894;15.542;2023-04-21T01:26:13;8.30;99.90
11569;DHT22;5840;46.894;15.542;2023-04-21T01:28:42;8.30;99.90
11569;DHT22;5840;46.894;15.542;2023-04-21T01:31:09;8.30;99.90
11569;DHT22;5840;46.894;15.542;2023-04-21T01:33:36;8.30;99.90
11569;DHT22;5840;46.894;15.542;2023-04-21T01:36:04;8.20;99.90
11569;DHT22;5840;46.894;15.542;2023-04-21T01:38:31;8.10;99.90
11569;DHT22;5840;46.894;15.542;2023-04-21T01:40:59;8.10;99.90
11569;DHT22;5840;46.894;15.542;2023-04-21T01:43:26;8.10;99.90
11569;DHT22;5840;46.894;15.542;2023-04-21T01:45:53;8.10;99.90
11569;DHT22;5840;46.894;15.542;2023-04-21T01:48:20;8.00;99.90
11569;DHT22;5840;46.894;15.542;2023-04-21T01:50:47;8.00;99.90
11569;DHT22;5840;46.894;15.542;2023-04-21T01:53:14;8.00;99.90
11569;DHT22;5840;46.894;15.542;2023-04-21T01:55:41;8.00;99.90
11569;DHT22;5840;46.894;15.542;2023-04-21T01:58:09;8.10;99.90
11569;DHT22;5840;46.894;15.542;2023-04-21T02:00:36;8.00;99.90
11569;DHT22;5840;46.894;15.542;2023-04-21T02:03:03;8.00;99.90
11569;DHT22;5840;46.894;15.542;2023-04-21T02:05:30;8.00;99.90
11569;DHT22;5840;46.894;15.542;2023-04-21T02:07:57;7.90;99.90
11569;DHT22;5840;46.894;15.542;2023-04-21T02:10:24;7.90;99.90
11569;DHT22;5840;46.894;15.542;2023-04-21T02:12:51;7.90;99.90
11569;DHT22;5840;46.894;15.542;2023-04-21T02:15:20;7.80;99.90
11569;DHT22;5840;46.894;15.542;2023-04-21T02:17:46;7.80;99.90
11569;DHT22;5840;46.894;15.542;2023-04-21T02:20:14;7.80;99.90
11569;DHT22;5840;46.894;15.542;2023-04-21T02:22:41;7.70;99.90
11569;DHT22;5840;46.894;15.542;2023-04-21T02:25:08;7.70;99.90
11569;DHT22;5840;46.894;15.542;2023-04-21T02:27:35;7.70;99.90
11569;DHT22;5840;46.894;15.542;2023-04-21T02:30:02;7.70;99.90
11569;DHT22;5840;46.894;15.542;2023-04-21T02:32:31;7.60;99.90
11569;DHT22;5840;46.894;15.542;2023-04-21T02:34:58;7.60;99.90
11569;DHT22;5840;46.894;15.542;2023-04-21T02:37:25;7.60;99.90
11569;DHT22;5840;46.894;15.542;2023-04-21T02:39:52;7.50;99.90
11569;DHT22;5840;46.894;15.542;2023-04-21T02:42:19;7.50;99.90
11569;DHT22;5840;46.894;15.542;2023-04-21T02:44:46;7.50;99.90
11569;DHT22;5840;46.894;15.542;2023-04-21T02:47:14;7.50;99.90
11569;DHT22;5840;46.894;15.542;2023-04-21T02:49:43;7.50;99.90
11569;DHT22;5840;46.894;15.542;2023-04-21T02:52:10;7.50;99.90
11569;DHT22;5840;46.894;15.542;2023-04-21T02:54:37;7.50;99.90
11569;DHT22;5840;46.894;15.542;2023-04-21T02:57:04;7.40;99.90
11569;DHT22;5840;46.894;15.542;2023-04-21T02:59:31;7.40;99.90
11569;DHT22;5840;46.894;15.542;2023-04-21T03:01:58;7.30;99.90
11569;DHT22;5840;46.894;15.542;2023-04-21T03:04:25;7.30;99.90
11569;DHT22;5840;46.894;15.542;2023-04-21T03:06:53;7.20;99.90
11569;DHT22;5840;46.894;15.542;2023-04-21T03:09:21;7.20;99.90
11569;DHT22;5840;46.894;15.542;2023-04-21T03:11:48;7.20;99.90
11569;DHT22;5840;46.894;15.542;2023-04-21T03:14:14;7.20;99.90
11569;DHT22;5840;46.894;15.542;2023-04-21T03:16:41;7.10;99.90
11569;DHT22;5840;46.894;15.542;2023-04-21T03:19:08;7.10;99.90
11569;DHT22;5840;46.894;15.542;2023-04-21T03:21:36;7.10;99.90
11569;DHT22;5840;46.894;15.542;2023-04-21T03:24:06;7.10;99.90
11569;DHT22;5840;46.894;15.542;2023-04-21T03:26:33;7.10;99.90
11569;DHT22;5840;46.894;15.542;2023-04-21T03:29:00;7.10;99.90
11569;DHT22;5840;46.894;15.542;2023-04-21T03:31:27;7.10;99.90
11569;DHT22;5840;46.894;15.542;2023-04-21T03:33:54;7.10;99.90
11569;DHT22;5840;46.894;15.542;2023-04-21T03:36:21;7.00;99.90
11569;DHT22;5840;46.894;15.542;2023-04-21T03:38:48;7.10;99.90
11569;DHT22;5840;46.894;15.542;2023-04-21T03:41:16;7.00;99.90
11569;DHT22;5840;46.894;15.542;2023-04-21T03:43:43;7.00;99.90
11569;DHT22;5840;46.894;15.542;2023-04-21T03:46:17;7.00;99.90
11569;DHT22;5840;46.894;15.542;2023-04-21T03:48:44;7.00;99.90
11569;DHT22;5840;46.894;15.542;2023-04-21T03:51:12;7.00;99.90
11569;DHT22;5840;46.894;15.542;2023-04-21T03:53:39;7.00;99.90
11569;DHT22;5840;46.894;15.542;2023-04-21T03:56:07;7.00;99.90
11569;DHT22;5840;46.894;15.542;2023-04-21T03:58:35;7.00;99.90
11569;DHT22;5840;46.894;15.542;2023-04-21T04:01:04;7.00;99.90
11569;DHT22;5840;46.894;15.542;2023-04-21T04:03:31;6.90;99.90
11569;DHT22;5840;46.894;15.542;2023-04-21T04:05:58;6.90;99.90
11569;DHT22;5840;46.894;15.542;2023-04-21T04:08:25;6.90;99.90
11569;DHT22;5840;46.894;15.542;2023-04-21T04:10:52;6.80;99.90
11569;DHT22;5840;46.894;15.542;2023-04-21T04:13:19;6.80;99.90
11569;DHT22;5840;46.894;15.542;2023-04-21T04:15:48;6.70;99.90
11569;DHT22;5840;46.894;15.542;2023-04-21T04:18:15;6.60;99.90
11569;DHT22;5840;46.894;15.542;2023-04-21T04:20:42;6.50;99.90
11569;DHT22;5840;46.894;15.542;2023-04-21T04:23:09;6.50;99.90
11569;DHT22;5840;46.894;15.542;2023-04-21T04:25:36;6.50;99.90
11569;DHT22;5840;46.894;15.542;2023-04-21T04:28:03;6.50;99.90
11569;DHT22;5840;46.894;15.542;2023-04-21T04:30:32;6.50;99.90
11569;DHT22;5840;46.894;15.542;2023-04-21T04:33:01;6.50;99.90
11569;DHT22;5840;46.894;15.542;2023-04-21T04:35:28;6.60;99.90
11569;DHT22;5840;46.894;15.542;2023-04-21T04:37:55;6.60;99.90
11569;DHT22;5840;46.894;15.542;2023-04-21T04:40:23;6.60;99.90
11569;DHT22;5840;46.894;15.542;2023-04-21T04:42:50;6.60;99.90
11569;DHT22;5840;46.894;15.542;2023-04-21T04:45:17;6.60;99.90
11569;DHT22;5840;46.894;15.542;2023-04-21T04:47:47;6.70;99.90
11569;DHT22;5840;46.894;15.542;2023-04-21T04:50:15;6.70;99.90
11569;DHT22;5840;46.894;15.542;2023-04-21T04:52:42;6.70;99.90
11569;DHT22;5840;46.894;15.542;2023-04-21T04:55:12;6.80;99.90
11569;DHT22;5840;46.894;15.542;2023-04-21T04:57:39;6.80;99.90
11569;DHT22;5840;46.894;15.542;2023-04-21T05:00:07;6.90;99.90
11569;DHT22;5840;46.894;15.542;2023-04-21T05:02:36;6.90;99.90
11569;DHT22;5840;46.894;15.542;2023-04-21T05:05:04;6.90;99.90
11569;DHT22;5840;46.894;15.542;2023-04-21T05:07:33;7.00;99.90
11569;DHT22;5840;46.894;15.542;2023-04-21T05:10:00;7.00;99.90
11569;DHT22;5840;46.894;15.542;2023-04-21T05:12:29;7.00;99.90
11569;DHT22;5840;46.894;15.542;2023-04-21T05:14:56;7.10;99.90
11569;DHT22;5840;46.894;15.542;2023-04-21T05:17:23;7.10;99.90
11569;DHT22;5840;46.894;15.542;2023-04-21T05:19:50;7.10;99.90
11569;DHT22;5840;46.894;15.542;2023-04-21T05:22:17;7.10;99.90
11569;DHT22;5840;46.894;15.542;2023-04-21T05:24:45;7.20;99.90
11569;DHT22;5840;46.894;15.542;2023-04-21T05:27:12;7.20;99.90
11569;DHT22;5840;46.894;15.542;2023-04-21T05:29:39;7.30;99.90
11569;DHT22;5840;46.894;15.542;2023-04-21T05:32:06;7.30;99.90
11569;DHT22;5840;46.894;15.542;2023-04-21T05:34:33;7.30;99.90
11569;DHT22;5840;46.894;15.542;2023-04-21T05:37:00;7.40;99.90
11569;DHT22;5840;46.894;15.542;2023-04-21T05:39:27;7.40;99.90
11569;DHT22;5840;46.894;15.542;2023-04-21T05:41:56;7.60;99.90
11569;DHT22;5840;46.894;15.542;2023-04-21T05:44:23;7.70;99.90
11569;DHT22;5840;46.894;15.542;2023-04-21T05:46:50;7.90;99.90
11569;DHT22;5840;46.894;15.542;2023-04-21T05:49:17;8.10;99.90
11569;DHT22;5840;46.894;15.542;2023-04-21T05:51:44;8.20;99.90
11569;DHT22;5840;46.894;15.542;2023-04-21T05:54:11;8.40;99.90
11569;DHT22;5840;46.894;15.542;2023-04-21T05:56:38;8.60;99.90
11569;DHT22;5840;46.894;15.542;2023-04-21T05:59:06;8.70;99.90
11569;DHT22;5840;46.894;15.542;2023-04-21T06:01:33;8.80;99.90
11569;DHT22;5840;46.894;15.542;2023-04-21T06:04:00;9.00;99.90
11569;DHT22;5840;46.894;15.542;2023-04-21T06:06:27;9.10;99.90
11569;DHT22;5840;46.894;15.542;2023-04-21T06:08:55;9.30;99.90
11569;DHT22;5840;46.894;15.542;2023-04-21T06:11:22;9.50;99.90
11569;DHT22;5840;46.894;15.542;2023-04-21T06:13:49;9.60;99.90
11569;DHT22;5840;46.894;15.542;2023-04-21T06:16:19;9.70;99.90
11569;DHT22;5840;46.894;15.542;2023-04-21T06:18:46;9.70;99.90
11569;DHT22;5840;46.894;15.542;2023-04-21T06:21:13;9.80;99.90
11569;DHT22;5840;46.894;15.542;2023-04-21T06:23:40;9.80;99.90
11569;DHT22;5840;46.894;15.542;2023-04-21T06:26:07;9.70;99.90
11569;DHT22;5840;46.894;15.542;2023-04-21T06:28:35;9.70;99.90
11569;DHT22;5840;46.894;15.542;2023-04-21T06:31:03;9.70;99.90
11569;DHT22;5840;46.894;15.542;2023-04-21T06:33:32;9.70;99.90
11569;DHT22;5840;46.894;15.542;2023-04-21T06:35:59;9.60;99.90
11569;DHT22;5840;46.894;15.542;2023-04-21T06:38:26;9.70;99.90
11569;DHT22;5840;46.894;15.542;2023-04-21T06:40:53;9.70;99.90
11569;DHT22;5840;46.894;15.542;2023-04-21T06:43:20;9.80;99.90
11569;DHT22;5840;46.894;15.542;2023-04-21T06:45:47;9.90;99.90
11569;DHT22;5840;46.894;15.542;2023-04-21T06:48:14;10.10;99.90
11569;DHT22;5840;46.894;15.542;2023-04-21T06:50:42;10.20;99.90
11569;DHT22;5840;46.894;15.542;2023-04-21T06:53:10;10.30;99.90
11569;DHT22;5840;46.894;15.542;2023-04-21T06:55:37;10.50;99.90
11569;DHT22;5840;46.894;15.542;2023-04-21T06:58:04;10.80;99.90
11569;DHT22;5840;46.894;15.542;2023-04-21T07:00:31;11.10;99.90
11569;DHT22;5840;46.894;15.542;2023-04-21T07:02:58;11.20;99.90
11569;DHT22;5840;46.894;15.542;2023-04-21T07:05:25;11.30;99.90
11569;DHT22;5840;46.894;15.542;2023-04-21T07:07:53;11.40;99.90
11569;DHT22;5840;46.894;15.542;2023-04-21T07:10:24;11.40;99.90
11569;DHT22;5840;46.894;15.542;2023-04-21T07:12:52;11.50;99.90
11569;DHT22;5840;46.894;15.542;2023-04-21T07:15:19;11.50;99.90
11569;DHT22;5840;46.894;15.542;2023-04-21T07:17:46;11.60;99.90
11569;DHT22;5840;46.894;15.542;2023-04-21T07:20:13;11.70;99.90
11569;DHT22;5840;46.894;15.542;2023-04-21T07:22:40;11.90;99.90
11569;DHT22;5840;46.894;15.542;2023-04-21T07:25:09;11.90;99.90
11569;DHT22;5840;46.894;15.542;2023-04-21T07:27:37;11.90;99.90
11569;DHT22;5840;46.894;15.542;2023-04-21T07:30:05;12.00;99.90
11569;DHT22;5840;46.894;15.542;2023-04-21T07:32:32;12.00;99.90
11569;DHT22;5840;46.894;15.542;2023-04-21T07:34:59;12.00;99.90
11569;DHT22;5840;46.894;15.542;2023-04-21T07:37:27;12.10;99.90
11569;DHT22;5840;46.894;15.542;2023-04-21T07:39:54;12.20;99.90
11569;DHT22;5840;46.894;15.542;2023-04-21T07:42:22;12.30;99.90
11569;DHT22;5840;46.894;15.542;2023-04-21T07:44:51;12.50;99.90
11569;DHT22;5840;46.894;15.542;2023-04-21T07:47:19;12.60;99.90
11569;DHT22;5840;46.894;15.542;2023-04-21T07:49:46;12.70;99.90
11569;DHT22;5840;46.894;15.542;2023-04-21T07:52:13;12.90;99.90
11569;DHT22;5840;46.894;15.542;2023-04-21T07:54:40;12.90;99.90
11569;DHT22;5840;46.894;15.542;2023-04-21T07:57:07;13.00;99.90
11569;DHT22;5840;46.894;15.542;2023-04-21T07:59:35;13.20;99.90
11569;DHT22;5840;46.894;15.542;2023-04-21T08:02:02;13.40;99.90
11569;DHT22;5840;46.894;15.542;2023-04-21T08:04:29;13.50;99.90
11569;DHT22;5840;46.894;15.542;2023-04-21T08:06:56;13.60;99.90
11569;DHT22;5840;46.894;15.542;2023-04-21T08:09:23;13.90;99.90
11569;DHT22;5840;46.894;15.542;2023-04-21T08:11:50;14.10;99.90
11569;DHT22;5840;46.894;15.542;2023-04-21T08:14:17;14.30;99.90
11569;DHT22;5840;46.894;15.542;2023-04-21T08:16:46;14.40;99.90
11569;DHT22;5840;46.894;15.542;2023-04-21T08:19:13;14.50;99.90
11569;DHT22;5840;46.894;15.542;2023-04-21T08:21:40;14.60;99.90
11569;DHT22;5840;46.894;15.542;2023-04-21T08:24:07;14.50;99.90
11569;DHT22;5840;46.894;15.542;2023-04-21T08:26:34;14.40;99.90
11569;DHT22;5840;46.894;15.542;2023-04-21T08:29:01;14.30;99.90
11569;DHT22;5840;46.894;15.542;2023-04-21T08:31:30;14.20;99.90
11569;DHT22;5840;46.894;15.542;2023-04-21T08:33:58;14.10;99.90
11569;DHT22;5840;46.894;15.542;2023-04-21T08:36:26;14.00;99.90
11569;DHT22;5840;46.894;15.542;2023-04-21T08:38:53;14.00;99.90
11569;DHT22;5840;46.894;15.542;2023-04-21T08:41:21;13.90;99.90
11569;DHT22;5840;46.894;15.542;2023-04-21T08:43:48;13.90;99.90
11569;DHT22;5840;46.894;15.542;2023-04-21T08:46:15;13.90;99.90
11569;DHT22;5840;46.894;15.542;2023-04-21T08:48:42;13.90;99.90
11569;DHT22;5840;46.894;15.542;2023-04-21T08:51:10;14.10;99.90
11569;DHT22;5840;46.894;15.542;2023-04-21T08:53:38;14.30;99.90
11569;DHT22;5840;46.894;15.542;2023-04-21T08:56:06;14.50;99.90
11569;DHT22;5840;46.894;15.542;2023-04-21T08:58:33;14.60;99.90
11569;DHT22;5840;46.894;15.542;2023-04-21T09:01:00;14.70;99.90
11569;DHT22;5840;46.894;15.542;2023-04-21T09:03:28;14.80;99.90
11569;DHT22;5840;46.894;15.542;2023-04-21T09:06:00;15.00;99.90
11569;DHT22;5840;46.894;15.542;2023-04-21T09:08:29;15.10;99.90
11569;DHT22;5840;46.894;15.542;2023-04-21T09:10:58;15.20;99.90
11569;DHT22;5840;46.894;15.542;2023-04-21T09:13:30;15.30;99.90
11569;DHT22;5840;46.894;15.542;2023-04-21T09:15:58;15.30;99.90
11569;DHT22;5840;46.894;15.542;2023-04-21T09:18:26;15.30;99.90
11569;DHT22;5840;46.894;15.542;2023-04-21T09:21:05;15.40;99.90
11569;DHT22;5840;46.894;15.542;2023-04-21T09:23:43;15.50;99.90
11569;DHT22;5840;46.894;15.542;2023-04-21T09:26:10;15.50;99.90
11569;DHT22;5840;46.894;15.542;2023-04-21T09:28:40;15.70;99.90
11569;DHT22;5840;46.894;15.542;2023-04-21T09:31:13;15.90;99.90
11569;DHT22;5840;46.894;15.542;2023-04-21T09:33:46;15.90;99.90
11569;DHT22;5840;46.894;15.542;2023-04-21T09:36:18;16.00;99.90
11569;DHT22;5840;46.894;15.542;2023-04-21T09:38:54;16.10;99.90
11569;DHT22;5840;46.894;15.542;2023-04-21T09:41:22;16.10;99.90
11569;DHT22;5840;46.894;15.542;2023-04-21T09:43:49;16.20;99.90
11569;DHT22;5840;46.894;15.542;2023-04-21T09:46:17;16.40;99.90
11569;DHT22;5840;46.894;15.542;2023-04-21T09:48:45;16.70;99.90
11569;DHT22;5840;46.894;15.542;2023-04-21T09:51:14;16.70;99.90
11569;DHT22;5840;46.894;15.542;2023-04-21T09:53:43;16.80;99.90
11569;DHT22;5840;46.894;15.542;2023-04-21T09:56:13;17.10;99.90
11569;DHT22;5840;46.894;15.542;2023-04-21T09:58:45;17.30;99.90
11569;DHT22;5840;46.894;15.542;2023-04-21T10:01:13;17.80;99.90
11569;DHT22;5840;46.894;15.542;2023-04-21T10:03:42;18.10;99.90
11569;DHT22;5840;46.894;15.542;2023-04-21T10:06:10;18.30;99.90
11569;DHT22;5840;46.894;15.542;2023-04-21T10:08:38;18.60;99.90
11569;DHT22;5840;46.894;15.542;2023-04-21T10:11:06;18.90;99.90
11569;DHT22;5840;46.894;15.542;2023-04-21T10:13:34;18.90;98.90
11569;DHT22;5840;46.894;15.542;2023-04-21T10:16:03;18.70;97.30
11569;DHT22;5840;46.894;15.542;2023-04-21T10:18:34;18.80;98.10
11569;DHT22;5840;46.894;15.542;2023-04-21T10:21:05;18.70;97.30
11569;DHT22;5840;46.894;15.542;2023-04-21T10:23:36;18.60;98.30
11569;DHT22;5840;46.894;15.542;2023-04-21T10:26:09;18.40;98.30
11569;DHT22;5840;46.894;15.542;2023-04-21T10:28:44;18.50;98.80
11569;DHT22;5840;46.894;15.542;2023-04-21T10:31:30;18.40;99.30
11569;DHT22;5840;46.894;15.542;2023-04-21T10:34:20;18.20;99.90
11569;DHT22;5840;46.894;15.542;2023-04-21T10:39:52;18.20;99.90
11569;DHT22;5840;46.894;15.542;2023-04-21T10:42:24;18.20;99.90
11569;DHT22;5840;46.894;15.542;2023-04-21T10:45:11;18.20;99.90
11569;DHT22;5840;46.894;15.542;2023-04-21T10:47:45;18.20;98.20
11569;DHT22;5840;46.894;15.542;2023-04-21T10:50:18;18.20;98.20
11569;DHT22;5840;46.894;15.542;2023-04-21T10:52:50;18.40;99.90
11569;DHT22;5840;46.894;15.542;2023-04-21T10:55:18;18.30;97.70
11569;DHT22;5840;46.894;15.542;2023-04-21T10:57:46;18.30;98.10
11569;DHT22;5840;46.894;15.542;2023-04-21T11:00:17;18.30;97.30
11569;DHT22;5840;46.894;15.542;2023-04-21T11:02:53;18.30;99.00
11569;DHT22;5840;46.894;15.542;2023-04-21T11:05:27;18.20;97.80
11569;DHT22;5840;46.894;15.542;2023-04-21T11:08:01;18.20;98.20
11569;DHT22;5840;46.894;15.542;2023-04-21T11:10:28;18.10;99.00
11569;DHT22;5840;46.894;15.542;2023-04-21T11:12:56;18.20;99.60
11569;DHT22;5840;46.894;15.542;2023-04-21T11:15:25;18.40;98.60
11569;DHT22;5840;46.894;15.542;2023-04-21T11:17:52;18.50;98.90
11569;DHT22;5840;46.894;15.542;2023-04-21T11:20:20;18.60;98.30
11569;DHT22;5840;46.894;15.542;2023-04-21T11:22:51;18.70;98.00
11569;DHT22;5840;46.894;15.542;2023-04-21T11:25:18;18.80;99.40
11569;DHT22;5840;46.894;15.542;2023-04-21T11:27:52;18.70;97.40
11569;DHT22;5840;46.894;15.542;2023-04-21T11:30:20;18.70;97.50
11569;DHT22;5840;46.894;15.542;2023-04-21T11:32:54;18.50;96.50
11569;DHT22;5840;46.894;15.542;2023-04-21T11:35:21;18.50;98.00
11569;DHT22;5840;46.894;15.542;2023-04-21T11:37:49;18.30;97.00
11569;DHT22;5840;46.894;15.542;2023-04-21T11:40:17;18.30;99.80
11569;DHT22;5840;46.894;15.542;2023-04-21T11:42:44;18.10;97.60
11569;DHT22;5840;46.894;15.542;2023-04-21T11:45:15;18.00;97.60
11569;DHT22;5840;46.894;15.542;2023-04-21T11:47:43;17.90;96.40
11569;DHT22;5840;46.894;15.542;2023-04-21T11:50:11;17.80;98.00
11569;DHT22;5840;46.894;15.542;2023-04-21T11:52:38;17.80;97.20
11569;DHT22;5840;46.894;15.542;2023-04-21T11:55:11;17.80;98.50
11569;DHT22;5840;46.894;15.542;2023-04-21T11:57:40;17.60;98.50
11569;DHT22;5840;46.894;15.542;2023-04-21T12:00:10;17.60;99.00
11569;DHT22;5840;46.894;15.542;2023-04-21T12:02:38;17.60;98.50
11569;DHT22;5840;46.894;15.542;2023-04-21T12:05:07;17.50;98.60
11569;DHT22;5840;46.894;15.542;2023-04-21T12:07:36;17.40;97.90
11569;DHT22;5840;46.894;15.542;2023-04-21T12:10:08;17.30;97.20
11569;DHT22;5840;46.894;15.542;2023-04-21T12:12:36;17.30;99.50
11569;DHT22;5840;46.894;15.542;2023-04-21T12:15:05;17.30;98.90
11569;DHT22;5840;46.894;15.542;2023-04-21T12:17:36;17.20;98.30
11569;DHT22;5840;46.894;15.542;2023-04-21T12:20:05;17.30;98.50
11569;DHT22;5840;46.894;15.542;2023-04-21T12:22:32;17.30;98.10
11569;DHT22;5840;46.894;15.542;2023-04-21T12:25:00;17.30;97.60
11569;DHT22;5840;46.894;15.542;2023-04-21T12:27:28;17.30;97.00
11569;DHT22;5840;46.894;15.542;2023-04-21T12:29:55;17.40;98.50
11569;DHT22;5840;46.894;15.542;2023-04-21T12:32:23;17.50;98.20
11569;DHT22;5840;46.894;15.542;2023-04-21T12:34:50;17.60;99.50
11569;DHT22;5840;46.894;15.542;2023-04-21T12:37:17;17.70;98.40
11569;DHT22;5840;46.894;15.542;2023-04-21T12:39:44;17.70;99.00
11569;DHT22;5840;46.894;15.542;2023-04-21T12:42:12;17.70;98.60
11569;DHT22;5840;46.894;15.542;2023-04-21T12:44:39;17.70;98.70
11569;DHT22;5840;46.894;15.542;2023-04-21T12:47:06;17.80;99.10
11569;DHT22;5840;46.894;15.542;2023-04-21T12:49:33;17.80;98.80
11569;DHT22;5840;46.894;15.542;2023-04-21T12:52:01;17.70;98.30
11569;DHT22;5840;46.894;15.542;2023-04-21T12:54:30;17.60;98.30
11569;DHT22;5840;46.894;15.542;2023-04-21T12:56:57;17.60;98.40
11569;DHT22;5840;46.894;15.542;2023-04-21T12:59:26;17.70;98.30
11569;DHT22;5840;46.894;15.542;2023-04-21T13:01:53;17.70;98.40
11569;DHT22;5840;46.894;15.542;2023-04-21T13:04:20;17.70;99.70
11569;DHT22;5840;46.894;15.542;2023-04-21T13:06:47;17.80;98.80
11569;DHT22;5840;46.894;15.542;2023-04-21T13:09:14;17.80;98.40
11569;DHT22;5840;46.894;15.542;2023-04-21T13:11:41;17.90;97.90
11569;DHT22;5840;46.894;15.542;2023-04-21T13:14:08;17.90;98.20
11569;DHT22;5840;46.894;15.542;2023-04-21T13:16:37;18.10;99.10
11569;DHT22;5840;46.894;15.542;2023-04-21T13:19:04;18.20;97.60
11569;DHT22;5840;46.894;15.542;2023-04-21T13:21:31;18.10;97.00
11569;DHT22;5840;46.894;15.542;2023-04-21T13:23:58;18.00;97.00
11569;DHT22;5840;46.894;15.542;2023-04-21T13:26:26;17.90;98.10
11569;DHT22;5840;46.894;15.542;2023-04-21T13:28:53;17.90;97.60
11569;DHT22;5840;46.894;15.542;2023-04-21T13:31:20;17.90;97.50
11569;DHT22;5840;46.894;15.542;2023-04-21T13:33:49;17.90;99.40
11569;DHT22;5840;46.894;15.542;2023-04-21T13:36:16;17.90;99.40
11569;DHT22;5840;46.894;15.542;2023-04-21T13:38:43;18.00;99.70
11569;DHT22;5840;46.894;15.542;2023-04-21T13:41:10;18.10;99.70
11569;DHT22;5840;46.894;15.542;2023-04-21T13:43:37;18.20;99.50
11569;DHT22;5840;46.894;15.542;2023-04-21T13:46:04;18.30;99.40
11569;DHT22;5840;46.894;15.542;2023-04-21T13:48:31;18.50;99.60
11569;DHT22;5840;46.894;15.542;2023-04-21T13:50:59;18.70;99.80
11569;DHT22;5840;46.894;15.542;2023-04-21T13:53:26;19.00;99.30
11569;DHT22;5840;46.894;15.542;2023-04-21T13:55:53;19.20;98.60
11569;DHT22;5840;46.894;15.542;2023-04-21T13:58:21;19.30;99.00
11569;DHT22;5840;46.894;15.542;2023-04-21T14:00:48;19.40;98.60
11569;DHT22;5840;46.894;15.542;2023-04-21T14:03:15;19.50;97.90
11569;DHT22;5840;46.894;15.542;2023-04-21T14:05:42;19.70;98.00
11569;DHT22;5840;46.894;15.542;2023-04-21T14:08:11;19.90;98.90
11569;DHT22;5840;46.894;15.542;2023-04-21T14:10:38;20.20;97.60
11569;DHT22;5840;46.894;15.542;2023-04-21T14:13:04;20.30;98.00
11569;DHT22;5840;46.894;15.542;2023-04-21T14:15:31;20.40;97.20
11569;DHT22;5840;46.894;15.542;2023-04-21T14:17:58;20.50;97.50
11569;DHT22;5840;46.894;15.542;2023-04-21T14:20:25;20.40;96.20
11569;DHT22;5840;46.894;15.542;2023-04-21T14:22:52;20.40;96.40
11569;DHT22;5840;46.894;15.542;2023-04-21T14:25:21;20.40;95.80
11569;DHT22;5840;46.894;15.542;2023-04-21T14:27:48;20.40;96.80
11569;DHT22;5840;46.894;15.542;2023-04-21T14:30:15;20.50;97.20
11569;DHT22;5840;46.894;15.542;2023-04-21T14:32:42;20.50;95.00
11569;DHT22;5840;46.894;15.542;2023-04-21T14:35:10;20.50;95.30
11569;DHT22;5840;46.894;15.542;2023-04-21T14:37:37;20.50;94.60
11569;DHT22;5840;46.894;15.542;2023-04-21T14:40:05;20.50;96.40
11569;DHT22;5840;46.894;15.542;2023-04-21T14:42:34;20.60;93.40
11569;DHT22;5840;46.894;15.542;2023-04-21T14:45:01;20.50;95.30
11569;DHT22;5840;46.894;15.542;2023-04-21T14:47:28;20.50;93.90
11569;DHT22;5840;46.894;15.542;2023-04-21T14:49:55;20.40;95.10
11569;DHT22;5840;46.894;15.542;2023-04-21T14:52:22;20.40;94.90
11569;DHT22;5840;46.894;15.542;2023-04-21T14:54:51;20.40;95.70
11569;DHT22;5840;46.894;15.542;2023-04-21T14:57:18;20.20;94.30
11569;DHT22;5840;46.894;15.542;2023-04-21T14:59:48;20.00;93.20
11569;DHT22;5840;46.894;15.542;2023-04-21T15:02:15;19.60;93.90
11569;DHT22;5840;46.894;15.542;2023-04-21T15:04:42;19.30;94.00
11569;DHT22;5840;46.894;15.542;2023-04-21T15:07:09;19.10;94.80
11569;DHT22;5840;46.894;15.542;2023-04-21T15:09:36;18.90;94.80
11569;DHT22;5840;46.894;15.542;2023-04-21T15:12:04;18.70;94.90
11569;DHT22;5840;46.894;15.542;2023-04-21T15:14:31;18.50;95.20
11569;DHT22;5840;46.894;15.542;2023-04-21T15:16:59;18.30;95.80
11569;DHT22;5840;46.894;15.542;2023-04-21T15:19:26;18.10;96.20
11569;DHT22;5840;46.894;15.542;2023-04-21T15:21:53;18.10;97.00
11569;DHT22;5840;46.894;15.542;2023-04-21T15:24:20;18.10;96.50
11569;DHT22;5840;46.894;15.542;2023-04-21T15:26:47;17.90;96.20
11569;DHT22;5840;46.894;15.542;2023-04-21T15:29:14;17.80;96.30
11569;DHT22;5840;46.894;15.542;2023-04-21T15:31:41;17.70;96.90
11569;DHT22;5840;46.894;15.542;2023-04-21T15:34:09;17.50;96.70
11569;DHT22;5840;46.894;15.542;2023-04-21T15:36:36;17.40;97.20
11569;DHT22;5840;46.894;15.542;2023-04-21T15:39:03;17.30;97.70
11569;DHT22;5840;46.894;15.542;2023-04-21T15:41:30;17.20;97.90
11569;DHT22;5840;46.894;15.542;2023-04-21T15:43:57;17.10;98.00